Time,TemperatureF,DewpointF,PressureIn,WindDirection,WindDirectionDegrees,WindSpeedMPH,WindSpeedGustMPH,Humidity,HourlyPrecipIn,Conditions,Clouds,dailyrainin,SolarRadiationWatts/m^2,SoftwareType,DateUTC
2013-07-14 00:05:00,74.2,74.0,29.97,SE,146,0.0,-999.0,100,-99.99,,,0.00,0,weatherlink.com 1.10,2013-07-14 04:05:00,
2013-07-14 00:20:00,74.0,74.0,29.97,SSE,163,0.0,-999.0,100,-99.99,,,0.00,0,weatherlink.com 1.10,2013-07-14 04:20:00,
2013-07-14 00:34:00,73.9,74.0,29.97,SSE,165,0.0,-999.0,100,-99.99,,,0.00,0,weatherlink.com 1.10,2013-07-14 04:34:00,
2013-07-14 00:50:00,73.7,74.0,29.97,SSE,160,0.0,-999.0,100,-99.99,,,0.00,0,weatherlink.com 1.10,2013-07-14 04:50:00,
2013-07-14 01:05:00,73.5,74.0,29.97,SSE,161,0.0,-999.0,100,-99.99,,,0.00,0,weatherlink.com 1.10,2013-07-14 05:05:00,
2013-07-14 01:19:00,73.3,73.0,29.97,SE,134,0.0,-999.0,100,-99.99,,,0.00,0,weatherlink.com 1.10,2013-07-14 05:19:00,
2013-07-14 01:35:00,73.2,73.0,29.97,SE,135,0.0,-999.0,100,-99.99,,,0.00,0,weatherlink.com 1.10,2013-07-14 05:35:00,
2013-07-14 01:50:00,72.8,73.0,29.97,SE,135,0.0,-999.0,100,-99.99,,,0.00,0,weatherlink.com 1.10,2013-07-14 05:50:00,
2013-07-14 02:04:00,72.5,73.0,29.97,SE,135,0.0,-999.0,100,-99.99,,,0.00,0,weatherlink.com 1.10,2013-07-14 06:04:00,
2013-07-14 02:19:00,72.1,72.0,29.97,SE,135,0.0,-999.0,100,-99.99,,,0.00,0,weatherlink.com 1.10,2013-07-14 06:19:00,
2013-07-14 02:34:00,72.0,72.0,29.96,SE,135,1.0,-999.0,100,-99.99,,,0.00,0,weatherlink.com 1.10,2013-07-14 06:34:00,
2013-07-14 02:49:00,71.8,72.0,29.95,SE,137,0.0,-999.0,100,-99.99,,,0.00,0,weatherlink.com 1.10,2013-07-14 06:49:00,
2013-07-14 03:04:00,71.6,72.0,29.95,SE,140,0.0,-999.0,100,-99.99,,,0.00,0,weatherlink.com 1.10,2013-07-14 07:04:00,
2013-07-14 03:19:00,71.5,72.0,29.95,SE,142,0.0,-999.0,100,-99.99,,,0.00,0,weatherlink.com 1.10,2013-07-14 07:19:00,
2013-07-14 03:34:00,71.3,71.0,29.95,SE,142,0.0,-999.0,100,-99.99,,,0.00,0,weatherlink.com 1.10,2013-07-14 07:34:00,
2013-07-14 03:49:00,71.1,71.0,29.95,SE,142,0.0,-999.0,100,-99.99,,,0.00,0,weatherlink.com 1.10,2013-07-14 07:49:00,
2013-07-14 04:04:00,71.1,71.0,29.95,SE,142,0.0,-999.0,100,-99.99,,,0.00,0,weatherlink.com 1.10,2013-07-14 08:04:00,
2013-07-14 04:20:00,70.9,71.0,29.95,SE,142,0.0,-999.0,100,-99.99,,,0.00,0,weatherlink.com 1.10,2013-07-14 08:20:00,
2013-07-14 04:35:00,70.9,71.0,29.95,SE,142,0.0,-999.0,100,-99.99,,,0.00,0,weatherlink.com 1.10,2013-07-14 08:35:00,
2013-07-14 04:49:00,70.9,71.0,29.96,SE,142,0.0,-999.0,100,-99.99,,,0.00,0,weatherlink.com 1.10,2013-07-14 08:49:00,
2013-07-14 05:04:00,70.8,71.0,29.96,SE,142,0.0,-999.0,100,-99.99,,,0.00,0,weatherlink.com 1.10,2013-07-14 09:04:00,
2013-07-14 05:20:00,70.9,71.0,29.96,SE,142,0.0,-999.0,100,-99.99,,,0.00,0,weatherlink.com 1.10,2013-07-14 09:20:00,
2013-07-14 05:34:00,70.9,71.0,29.96,SE,142,0.0,-999.0,100,-99.99,,,0.00,0,weatherlink.com 1.10,2013-07-14 09:34:00,
2013-07-14 05:50:00,71.1,71.0,29.96,SSE,160,1.0,-999.0,100,-99.99,,,0.00,0,weatherlink.com 1.10,2013-07-14 09:50:00,
2013-07-14 06:04:00,71.5,72.0,29.96,SSE,154,0.0,-999.0,100,-99.99,,,0.00,0,weatherlink.com 1.10,2013-07-14 10:04:00,
2013-07-14 06:20:00,71.5,72.0,29.97,SE,126,0.0,-999.0,100,-99.99,,,0.00,0,weatherlink.com 1.10,2013-07-14 10:20:00,
2013-07-14 06:34:00,71.6,72.0,29.97,SE,126,0.0,-999.0,100,-99.99,,,0.00,0,weatherlink.com 1.10,2013-07-14 10:34:00,
2013-07-14 06:49:00,71.6,72.0,29.97,SE,126,0.0,-999.0,100,-99.99,,,0.00,9,weatherlink.com 1.10,2013-07-14 10:49:00,
2013-07-14 07:04:00,71.8,72.0,29.97,SE,126,0.0,-999.0,100,-99.99,,,0.00,30,weatherlink.com 1.10,2013-07-14 11:04:00,
2013-07-14 07:20:00,72.3,72.0,29.97,SSE,154,0.0,-999.0,100,-99.99,,,0.00,60,weatherlink.com 1.10,2013-07-14 11:20:00,
2013-07-14 07:35:00,72.8,73.0,29.98,SSE,157,0.0,-999.0,100,-99.99,,,0.00,97,weatherlink.com 1.10,2013-07-14 11:35:00,
2013-07-14 07:49:00,73.5,74.0,29.98,SE,140,11.0,-999.0,100,-99.99,,,0.00,134,weatherlink.com 1.10,2013-07-14 11:49:00,
2013-07-14 08:04:00,74.4,74.0,29.98,SSE,152,5.0,-999.0,99,-99.99,,,0.00,76,weatherlink.com 1.10,2013-07-14 12:04:00,
2013-07-14 08:20:00,74.9,74.0,29.99,SSE,157,1.0,-999.0,97,-99.99,,,0.00,213,weatherlink.com 1.10,2013-07-14 12:20:00,
2013-07-14 08:35:00,75.6,74.0,30.00,SSE,167,8.0,-999.0,95,-99.99,,,0.00,160,weatherlink.com 1.10,2013-07-14 12:35:00,
2013-07-14 08:49:00,76.0,74.0,30.00,South,185,5.0,-999.0,94,-99.99,,,0.00,227,weatherlink.com 1.10,2013-07-14 12:49:00,
2013-07-14 09:04:00,76.5,74.0,30.01,South,186,5.0,-999.0,93,-99.99,,,0.00,179,weatherlink.com 1.10,2013-07-14 13:04:00,
2013-07-14 09:20:00,77.2,75.0,30.01,South,171,4.0,-999.0,92,-99.99,,,0.00,297,weatherlink.com 1.10,2013-07-14 13:20:00,
2013-07-14 09:34:00,78.1,75.0,30.01,South,169,4.0,-999.0,91,-99.99,,,0.01,279,weatherlink.com 1.10,2013-07-14 13:34:00,
2013-07-14 09:50:00,79.2,76.0,30.02,East,88,0.0,-999.0,89,-99.99,,,0.01,689,weatherlink.com 1.10,2013-07-14 13:50:00,
2013-07-14 10:04:00,80.3,76.0,30.01,South,182,0.0,-999.0,86,-99.99,,,0.01,772,weatherlink.com 1.10,2013-07-14 14:04:00,
2013-07-14 10:19:00,80.7,76.0,30.01,SSE,168,0.0,-999.0,86,-99.99,,,0.01,260,weatherlink.com 1.10,2013-07-14 14:19:00,
2013-07-14 10:35:00,81.6,76.0,30.01,SSE,163,0.0,-999.0,84,-99.99,,,0.01,881,weatherlink.com 1.10,2013-07-14 14:35:00,
2013-07-14 10:49:00,82.6,77.0,30.01,SSW,204,0.0,-999.0,82,-99.99,,,0.01,875,weatherlink.com 1.10,2013-07-14 14:49:00,
2013-07-14 11:04:00,83.4,77.0,30.02,WSW,252,0.0,-999.0,80,-99.99,,,0.01,875,weatherlink.com 1.10,2013-07-14 15:04:00,
2013-07-14 11:19:00,83.0,76.0,30.02,West,262,3.0,-999.0,79,-99.99,,,0.01,288,weatherlink.com 1.10,2013-07-14 15:19:00,
2013-07-14 11:35:00,83.2,76.0,30.02,South,184,0.0,-999.0,80,-99.99,,,0.01,976,weatherlink.com 1.10,2013-07-14 15:35:00,
2013-07-14 11:50:00,85.7,77.0,30.02,SE,127,0.0,-999.0,74,-99.99,,,0.01,1042,weatherlink.com 1.10,2013-07-14 15:50:00,
2013-07-14 12:05:00,86.3,76.0,30.02,SSW,212,0.0,-999.0,71,-99.99,,,0.01,1013,weatherlink.com 1.10,2013-07-14 16:05:00,
2013-07-14 12:19:00,85.9,75.0,30.01,West,264,0.0,-999.0,70,-99.99,,,0.01,355,weatherlink.com 1.10,2013-07-14 16:19:00,
2013-07-14 12:34:00,87.0,77.0,30.01,WSW,245,0.0,-999.0,71,-99.99,,,0.01,1097,weatherlink.com 1.10,2013-07-14 16:34:00,
2013-07-14 12:50:00,86.5,75.0,30.01,West,275,0.0,-999.0,68,-99.99,,,0.01,279,weatherlink.com 1.10,2013-07-14 16:50:00,
2013-07-14 13:05:00,86.5,75.0,30.01,SSE,167,0.0,-999.0,69,-99.99,,,0.01,1297,weatherlink.com 1.10,2013-07-14 17:05:00,
2013-07-14 13:19:00,85.3,77.0,30.01,SSE,167,8.0,-999.0,75,-99.99,,,0.01,327,weatherlink.com 1.10,2013-07-14 17:19:00,
2013-07-14 13:35:00,85.1,77.0,30.00,SE,128,5.0,-999.0,76,-99.99,,,0.01,271,weatherlink.com 1.10,2013-07-14 17:35:00,
2013-07-14 13:49:00,83.2,76.0,30.00,ENE,57,4.0,-999.0,78,-99.99,,,0.01,151,weatherlink.com 1.10,2013-07-14 17:49:00,
2013-07-14 14:04:00,82.2,76.0,30.01,East,84,0.0,-999.0,80,-99.99,,,0.01,39,weatherlink.com 1.10,2013-07-14 18:04:00,
2013-07-14 14:20:00,77.7,76.0,30.02,NE,56,0.0,-999.0,93,-99.99,,,0.61,32,weatherlink.com 1.10,2013-07-14 18:20:00,
2013-07-14 14:35:00,75.3,74.0,30.03,NNE,32,1.0,-999.0,96,-99.99,,,1.31,42,weatherlink.com 1.10,2013-07-14 18:35:00,
2013-07-14 14:50:00,74.6,74.0,30.04,NE,44,0.0,-999.0,99,-99.99,,,1.71,46,weatherlink.com 1.10,2013-07-14 18:50:00,
2013-07-14 15:05:00,73.9,74.0,30.02,ESE,117,0.0,-999.0,99,-99.99,,,1.76,49,weatherlink.com 1.10,2013-07-14 19:05:00,
2013-07-14 15:20:00,73.5,74.0,30.02,ENE,63,0.0,-999.0,100,-99.99,,,1.81,49,weatherlink.com 1.10,2013-07-14 19:20:00,
2013-07-14 15:35:00,73.5,74.0,30.03,ENE,63,0.0,-999.0,100,-99.99,,,1.83,47,weatherlink.com 1.10,2013-07-14 19:35:00,
2013-07-14 15:50:00,73.7,74.0,30.03,ENE,63,0.0,-999.0,100,-99.99,,,1.85,60,weatherlink.com 1.10,2013-07-14 19:50:00,
2013-07-14 16:05:00,73.7,74.0,30.03,ENE,63,0.0,-999.0,100,-99.99,,,1.88,46,weatherlink.com 1.10,2013-07-14 20:05:00,
2013-07-14 16:20:00,73.9,74.0,30.02,ENE,63,0.0,-999.0,100,-99.99,,,1.89,70,weatherlink.com 1.10,2013-07-14 20:20:00,
2013-07-14 16:35:00,73.9,74.0,30.02,ENE,63,0.0,-999.0,100,-99.99,,,1.90,58,weatherlink.com 1.10,2013-07-14 20:35:00,
2013-07-14 16:50:00,73.9,74.0,30.03,ENE,63,0.0,-999.0,100,-99.99,,,1.92,54,weatherlink.com 1.10,2013-07-14 20:50:00,
2013-07-14 17:05:00,74.0,74.0,30.03,ENE,63,0.0,-999.0,100,-99.99,,,1.93,58,weatherlink.com 1.10,2013-07-14 21:05:00,
2013-07-14 17:20:00,74.4,74.0,30.02,SE,132,0.0,-999.0,100,-99.99,,,1.94,53,weatherlink.com 1.10,2013-07-14 21:20:00,
2013-07-14 17:35:00,74.4,74.0,30.01,SSE,161,2.0,-999.0,100,-99.99,,,1.95,51,weatherlink.com 1.10,2013-07-14 21:35:00,
2013-07-14 17:50:00,74.4,74.0,30.01,SSE,157,0.0,-999.0,100,-99.99,,,1.96,53,weatherlink.com 1.10,2013-07-14 21:50:00,
2013-07-14 18:05:00,74.4,74.0,30.01,SSE,164,0.0,-999.0,100,-99.99,,,1.98,46,weatherlink.com 1.10,2013-07-14 22:05:00,
2013-07-14 18:20:00,74.4,74.0,30.01,South,172,2.0,-999.0,100,-99.99,,,2.00,42,weatherlink.com 1.10,2013-07-14 22:20:00,
2013-07-14 18:35:00,74.0,74.0,30.01,South,190,1.0,-999.0,100,-99.99,,,2.01,47,weatherlink.com 1.10,2013-07-14 22:35:00,
2013-07-14 18:51:00,73.7,74.0,30.02,SSE,156,1.0,-999.0,100,-99.99,,,2.02,46,weatherlink.com 1.10,2013-07-14 22:51:00,
2013-07-14 19:05:00,73.5,74.0,30.02,SSE,160,0.0,-999.0,100,-99.99,,,2.03,42,weatherlink.com 1.10,2013-07-14 23:05:00,
2013-07-14 19:20:00,73.5,74.0,30.02,South,169,0.0,-999.0,100,-99.99,,,2.03,35,weatherlink.com 1.10,2013-07-14 23:20:00,
2013-07-14 19:35:00,73.5,74.0,30.02,SSE,167,0.0,-999.0,100,-99.99,,,2.03,23,weatherlink.com 1.10,2013-07-14 23:35:00,
2013-07-14 19:50:00,73.5,74.0,30.04,SSE,162,0.0,-999.0,100,-99.99,,,2.03,11,weatherlink.com 1.10,2013-07-14 23:50:00,
2013-07-14 20:05:00,73.3,73.0,30.05,SE,124,4.0,-999.0,100,-99.99,,,2.03,5,weatherlink.com 1.10,2013-07-15 00:05:00,
2013-07-14 20:20:00,73.2,73.0,30.05,East,84,0.0,-999.0,100,-99.99,,,2.03,0,weatherlink.com 1.10,2013-07-15 00:20:00,
2013-07-14 20:35:00,73.2,73.0,30.05,ENE,73,0.0,-999.0,100,-99.99,,,2.03,0,weatherlink.com 1.10,2013-07-15 00:35:00,
2013-07-14 20:50:00,73.0,73.0,30.05,East,84,0.0,-999.0,100,-99.99,,,2.03,0,weatherlink.com 1.10,2013-07-15 00:50:00,
2013-07-14 21:05:00,73.0,73.0,30.05,East,84,0.0,-999.0,100,-99.99,,,2.03,0,weatherlink.com 1.10,2013-07-15 01:05:00,
2013-07-14 21:20:00,72.8,73.0,30.05,East,84,0.0,-999.0,100,-99.99,,,2.03,0,weatherlink.com 1.10,2013-07-15 01:20:00,
2013-07-14 21:35:00,72.7,73.0,30.06,East,84,0.0,-999.0,100,-99.99,,,2.03,0,weatherlink.com 1.10,2013-07-15 01:35:00,
2013-07-14 21:50:00,72.8,73.0,30.06,SE,139,0.0,-999.0,100,-99.99,,,2.03,0,weatherlink.com 1.10,2013-07-15 01:50:00,
2013-07-14 22:05:00,72.8,73.0,30.07,SSE,162,1.0,-999.0,100,-99.99,,,2.03,0,weatherlink.com 1.10,2013-07-15 02:05:00,
2013-07-14 22:20:00,72.7,73.0,30.07,SSE,158,0.0,-999.0,100,-99.99,,,2.03,0,weatherlink.com 1.10,2013-07-15 02:20:00,
2013-07-14 22:35:00,72.7,73.0,30.07,SSE,157,0.0,-999.0,100,-99.99,,,2.03,0,weatherlink.com 1.10,2013-07-15 02:35:00,
2013-07-14 22:50:00,72.7,73.0,30.06,SSE,161,0.0,-999.0,100,-99.99,,,2.03,0,weatherlink.com 1.10,2013-07-15 02:50:00,
2013-07-14 23:05:00,72.5,73.0,30.07,SE,138,0.0,-999.0,100,-99.99,,,2.03,0,weatherlink.com 1.10,2013-07-15 03:05:00,
2013-07-14 23:20:00,72.3,72.0,30.06,SE,138,0.0,-999.0,100,-99.99,,,2.03,0,weatherlink.com 1.10,2013-07-15 03:20:00,
2013-07-14 23:35:00,72.1,72.0,30.06,SE,138,0.0,-999.0,100,-99.99,,,2.03,0,weatherlink.com 1.10,2013-07-15 03:35:00,
2013-07-14 23:50:00,72.0,72.0,30.06,SE,138,0.0,-999.0,100,-99.99,,,2.03,0,weatherlink.com 1.10,2013-07-15 03:50:00,